createdAt,value
2023-05-13T00:02:56.486Z,96545.31
2023-05-13T00:07:48.270Z,96546.16
2023-05-13T00:12:39.983Z,96548.19
2023-05-13T00:17:31.691Z,96540.94
2023-05-13T00:22:23.395Z,96559.69
2023-05-13T00:27:15.111Z,96555.13
2023-05-13T00:32:07.103Z,96556.81
2023-05-13T00:36:58.813Z,96550.31
2023-05-13T00:41:50.456Z,96552.81
2023-05-13T00:46:42.740Z,96553.13
2023-05-13T00:51:34.505Z,96553.94
2023-05-13T00:56:27.033Z,96557.03
2023-05-13T01:01:41.655Z,96547.78
2023-05-13T01:07:14.661Z,96554.94
2023-05-13T01:12:19.801Z,96559.81
2023-05-13T01:17:41.328Z,96556.72
2023-05-13T01:22:33.106Z,96544.53
2023-05-13T01:27:25.876Z,96548.34
2023-05-13T01:32:19.100Z,96543.56
2023-05-13T01:37:10.913Z,96549.94
2023-05-13T01:42:03.137Z,96549.38
2023-05-13T01:46:55.359Z,96545.25
2023-05-13T01:51:47.158Z,96547.63
2023-05-13T01:56:39.073Z,96555.84
2023-05-13T02:01:30.853Z,96556.31
2023-05-13T02:06:22.673Z,96555.19
2023-05-13T02:11:14.405Z,96551.59
2023-05-13T02:16:06.284Z,96561.66
2023-05-13T02:20:58.030Z,96562.22
2023-05-13T02:25:49.702Z,96556.13
2023-05-13T02:30:41.726Z,96553.84
2023-05-13T02:35:33.461Z,96557.25
2023-05-13T02:40:25.133Z,96560.13
2023-05-13T02:45:16.968Z,96552.63
2023-05-13T02:50:09.999Z,96554.22
2023-05-13T02:55:03.031Z,96553.91
2023-05-13T02:59:54.744Z,96561.94
2023-05-13T03:04:47.224Z,96553.09
2023-05-13T03:09:39.473Z,96559.31
2023-05-13T03:14:31.327Z,96570.00
2023-05-13T03:19:23.915Z,96573.66
2023-05-13T03:24:15.624Z,96572.38
2023-05-13T03:29:07.291Z,96565.34
2023-05-13T03:33:58.997Z,96570.69
2023-05-13T03:38:50.703Z,96580.34
2023-05-13T03:43:42.403Z,96578.81
2023-05-13T03:48:34.165Z,96578.66
2023-05-13T03:53:25.863Z,96592.06
2023-05-13T03:58:18.418Z,96594.63
2023-05-13T04:03:10.490Z,96591.84
2023-05-13T04:08:02.268Z,96590.56
2023-05-13T04:12:54.070Z,96599.47
2023-05-13T04:17:45.938Z,96602.44
2023-05-13T04:22:37.701Z,96611.50
2023-05-13T04:27:29.395Z,96610.91
2023-05-13T04:32:24.033Z,96611.16
2023-05-13T04:37:16.078Z,96616.72
2023-05-13T04:42:07.946Z,96625.75
2023-05-13T04:46:59.595Z,96629.78
2023-05-13T04:51:51.314Z,96632.03
2023-05-13T04:56:43.345Z,96636.34
2023-05-13T05:01:35.155Z,96637.38
2023-05-13T05:06:26.901Z,96636.94
2023-05-13T05:11:18.594Z,96650.97
2023-05-13T05:16:10.381Z,96662.03
2023-05-13T05:21:02.965Z,96663.38
2023-05-13T05:26:04.060Z,96666.69
2023-05-13T05:31:02.803Z,96679.69
2023-05-13T05:35:54.472Z,96671.81
2023-05-13T05:40:46.407Z,96679.16
2023-05-13T05:45:39.632Z,96680.25
2023-05-13T05:50:32.595Z,96684.16
2023-05-13T05:55:24.258Z,96687.03
2023-05-13T06:00:16.533Z,96691.44
2023-05-13T06:05:09.157Z,96697.91
2023-05-13T06:10:01.404Z,96706.03
2023-05-13T06:14:53.077Z,96708.94
2023-05-13T06:19:44.753Z,96706.94
2023-05-13T06:24:37.436Z,96702.22
2023-05-13T06:29:29.565Z,96696.19
2023-05-13T06:34:21.363Z,96698.75
2023-05-13T06:39:13.637Z,96705.44
2023-05-13T06:44:07.314Z,96701.84
2023-05-13T06:48:59.408Z,96703.78
2023-05-13T06:53:51.280Z,96705.25
2023-05-13T06:58:42.969Z,96704.66
2023-05-13T07:03:34.764Z,96703.31
2023-05-13T07:08:26.471Z,96709.59
2023-05-13T07:13:20.897Z,96710.84
2023-05-13T07:18:12.831Z,96713.78
2023-05-13T07:23:04.540Z,96714.97
2023-05-13T07:27:56.255Z,96715.44
2023-05-13T07:32:48.029Z,96709.72
2023-05-13T07:37:40.043Z,96712.66
2023-05-13T07:42:32.338Z,96708.41
2023-05-13T07:47:24.154Z,96710.53
2023-05-13T07:52:16.469Z,96706.53
2023-05-13T07:57:08.150Z,96708.03
2023-05-13T08:01:59.831Z,96718.59
2023-05-13T08:06:51.495Z,96715.13
2023-05-13T08:11:43.252Z,96721.63
2023-05-13T08:16:38.624Z,96716.72
2023-05-13T08:21:31.647Z,96722.59
2023-05-13T08:26:23.463Z,96721.34
2023-05-13T08:31:15.485Z,96720.03
2023-05-13T08:36:08.020Z,96718.44
2023-05-13T08:41:00.168Z,96717.97
2023-05-13T08:45:54.721Z,96725.03
2023-05-13T08:50:47.763Z,96726.66
2023-05-13T08:55:40.431Z,96729.13
2023-05-13T09:00:34.603Z,96744.72
2023-05-13T09:05:27.030Z,96735.38
2023-05-13T09:10:21.121Z,96756.22
2023-05-13T09:15:16.756Z,96759.38
2023-05-13T09:20:12.263Z,96761.47
2023-05-13T09:25:04.402Z,96757.53
2023-05-13T09:30:01.940Z,96752.72
2023-05-13T09:34:53.679Z,96763.59
2023-05-13T09:39:46.088Z,96755.50
2023-05-13T09:44:38.598Z,96759.16
2023-05-13T09:49:32.141Z,96754.13
2023-05-13T09:54:23.820Z,96754.94
2023-05-13T09:59:16.166Z,96764.25
2023-05-13T10:04:08.772Z,96753.34
2023-05-13T10:09:05.295Z,96761.31
2023-05-13T10:14:02.930Z,96767.34
2023-05-13T10:18:56.750Z,96763.84
2023-05-13T10:23:53.158Z,96764.31
2023-05-13T10:28:45.903Z,96767.59
2023-05-13T10:33:37.660Z,96768.06
2023-05-13T10:39:07.911Z,96758.03
2023-05-13T10:43:59.854Z,96770.22
2023-05-13T10:48:58.197Z,96775.22
2023-05-13T10:53:55.842Z,96763.13
2023-05-13T10:59:06.222Z,96770.22
2023-05-13T11:04:01.542Z,96762.69
2023-05-13T11:08:55.919Z,96766.25
2023-05-13T11:14:23.817Z,96764.63
2023-05-13T11:19:37.825Z,96764.13
2023-05-13T11:24:29.703Z,96772.34
2023-05-13T11:29:36.087Z,96779.19
2023-05-13T11:34:28.221Z,96769.47
2023-05-13T11:39:22.628Z,96779.63
2023-05-13T11:44:18.553Z,96771.22
2023-05-13T11:49:10.269Z,96759.50
2023-05-13T11:54:03.616Z,96765.78
2023-05-13T11:58:56.677Z,96770.38
2023-05-13T12:03:48.454Z,96771.50
2023-05-13T12:08:45.299Z,96776.63
2023-05-13T12:13:37.136Z,96779.03
2023-05-13T12:18:28.841Z,96776.53
2023-05-13T12:23:20.538Z,96773.06
2023-05-13T12:28:25.521Z,96785.75
2023-05-13T12:33:20.922Z,96783.69
2023-05-13T12:38:19.873Z,96778.41
2023-05-13T12:43:13.061Z,96773.16
2023-05-13T12:48:04.925Z,96794.75
2023-05-13T12:53:02.766Z,96790.31
2023-05-13T12:57:57.142Z,96792.16
2023-05-13T13:02:49.227Z,96794.13
2023-05-13T13:07:42.150Z,96797.31
2023-05-13T13:12:33.889Z,96786.59
2023-05-13T13:17:25.638Z,96789.41
2023-05-13T13:22:17.347Z,96775.16
2023-05-13T13:27:11.700Z,96777.06
2023-05-13T13:32:03.611Z,96772.94
2023-05-13T13:36:55.302Z,96774.53
2023-05-13T13:41:47.182Z,96778.97
2023-05-13T13:46:39.047Z,96766.41
2023-05-13T13:51:30.803Z,96770.59
2023-05-13T13:56:22.544Z,96765.47
2023-05-13T14:01:15.512Z,96775.50
2023-05-13T14:06:08.396Z,96776.41
2023-05-13T14:11:00.255Z,96762.97
2023-05-13T14:15:52.049Z,96752.97
2023-05-13T14:20:43.819Z,96761.00
2023-05-13T14:25:35.855Z,96764.44
2023-05-13T14:30:27.742Z,96764.84
2023-05-13T14:35:19.571Z,96764.84
2023-05-13T14:40:11.359Z,96761.53
2023-05-13T14:45:03.142Z,96763.44
2023-05-13T14:49:54.812Z,96755.91
2023-05-13T14:54:46.484Z,96750.75
2023-05-13T14:59:38.151Z,96752.94
2023-05-13T15:04:30.088Z,96744.41
2023-05-13T15:09:22.103Z,96739.66
2023-05-13T15:14:17.586Z,96738.44
2023-05-13T15:19:09.460Z,96740.78
2023-05-13T15:24:01.220Z,96741.81
2023-05-13T15:28:52.888Z,96740.00
2023-05-13T15:33:45.302Z,96730.13
2023-05-13T15:38:37.401Z,96728.78
2023-05-13T15:43:30.651Z,96733.81
2023-05-13T15:48:22.425Z,96723.59
2023-05-13T15:53:14.118Z,96732.53
2023-05-13T15:58:06.874Z,96738.16
2023-05-13T16:02:58.607Z,96722.50
2023-05-13T16:07:50.521Z,96725.56
2023-05-13T16:12:42.870Z,96728.78
2023-05-13T16:17:35.709Z,96726.22
2023-05-13T16:22:34.461Z,96726.56
2023-05-13T16:27:26.919Z,96722.88
2023-05-13T16:32:18.589Z,96730.06
2023-05-13T16:37:10.259Z,96725.88
2023-05-13T16:42:01.959Z,96715.66
2023-05-13T16:46:53.647Z,96719.22
2023-05-13T16:51:45.376Z,96721.88
2023-05-13T16:56:37.040Z,96717.28
2023-05-13T17:01:28.775Z,96717.38
2023-05-13T17:06:20.520Z,96706.25
2023-05-13T17:11:16.456Z,96722.03
2023-05-13T17:16:09.318Z,96716.53
2023-05-13T17:21:04.074Z,96720.91
2023-05-13T17:25:56.015Z,96726.13
2023-05-13T17:30:48.025Z,96724.66
2023-05-13T17:35:39.854Z,96725.75
2023-05-13T17:40:31.525Z,96728.78
2023-05-13T17:45:23.438Z,96732.44
2023-05-13T17:50:16.086Z,96733.16
2023-05-13T17:55:08.564Z,96731.81
2023-05-13T18:00:00.270Z,96721.69
2023-05-13T18:04:52.449Z,96725.94
2023-05-13T18:09:44.117Z,96718.44
2023-05-13T18:14:35.804Z,96731.88
2023-05-13T18:19:27.619Z,96734.06
2023-05-13T18:24:19.339Z,96732.59
2023-05-13T18:29:11.020Z,96730.59
2023-05-13T18:34:03.248Z,96728.69
2023-05-13T18:38:55.175Z,96722.47
2023-05-13T18:43:47.069Z,96728.53
2023-05-13T18:48:38.759Z,96729.00
2023-05-13T18:53:30.451Z,96729.34
2023-05-13T18:58:22.248Z,96742.13
2023-05-13T19:03:14.253Z,96743.59
2023-05-13T19:08:07.846Z,96751.56
2023-05-13T19:12:59.542Z,96745.34
2023-05-13T19:17:52.419Z,96749.00
2023-05-13T19:22:44.806Z,96751.63
2023-05-13T19:27:37.649Z,96752.84
2023-05-13T19:32:29.770Z,96764.00
2023-05-13T19:37:21.716Z,96781.88
2023-05-13T19:42:15.339Z,96771.59
2023-05-13T19:47:07.084Z,96772.50
2023-05-13T19:51:58.908Z,96763.06
2023-05-13T19:56:50.737Z,96774.81
2023-05-13T20:01:42.596Z,96769.28
2023-05-13T20:06:34.329Z,96772.00
2023-05-13T20:11:26.363Z,96768.00
2023-05-13T20:16:21.991Z,96767.22
2023-05-13T20:21:13.713Z,96778.22
2023-05-13T20:26:05.578Z,96787.00
2023-05-13T20:30:57.318Z,96780.94
2023-05-13T20:35:49.043Z,96777.81
2023-05-13T20:40:41.258Z,96771.53
2023-05-13T20:45:32.943Z,96777.19
2023-05-13T20:50:28.676Z,96768.72
2023-05-13T20:55:21.733Z,96773.91
2023-05-13T21:00:14.340Z,96770.69
2023-05-13T21:05:07.244Z,96766.72
2023-05-13T21:09:58.950Z,96776.22
2023-05-13T21:14:50.629Z,96776.91
2023-05-13T21:19:42.345Z,96771.53
2023-05-13T21:24:34.024Z,96767.84
2023-05-13T21:29:25.710Z,96763.38
2023-05-13T21:34:17.387Z,96770.88
2023-05-13T21:39:11.010Z,96763.03
2023-05-13T21:44:02.689Z,96752.25
2023-05-13T21:48:54.512Z,96760.31
2023-05-13T21:53:46.194Z,96761.44
2023-05-13T21:58:37.869Z,96755.06
2023-05-13T22:03:29.610Z,96753.00
2023-05-13T22:08:21.901Z,96744.84
2023-05-13T22:13:13.580Z,96740.19
2023-05-13T22:18:05.487Z,96740.72
2023-05-13T22:22:57.192Z,96749.47
2023-05-13T22:27:50.804Z,96744.09
2023-05-13T22:32:42.559Z,96736.81
2023-05-13T22:37:34.259Z,96730.69
2023-05-13T22:42:26.094Z,96727.47
2023-05-13T22:47:17.756Z,96719.03
2023-05-13T22:52:09.419Z,96716.88
2023-05-13T22:57:01.088Z,96718.09
2023-05-13T23:01:52.815Z,96715.47
2023-05-13T23:06:44.561Z,96708.19
2023-05-13T23:11:36.931Z,96702.50
2023-05-13T23:16:28.667Z,96703.78
2023-05-13T23:21:20.649Z,96694.22
2023-05-13T23:26:12.337Z,96690.38
2023-05-13T23:31:04.330Z,96680.66
2023-05-13T23:35:56.432Z,96675.16
2023-05-13T23:40:48.634Z,96670.72
2023-05-13T23:45:40.633Z,96664.91
2023-05-13T23:50:32.770Z,96661.81
2023-05-13T23:55:24.503Z,96665.16
